sensor_id;sensor_type;location;lat;lon;timestamp;temperature;humidity
6373;DHT22;3219;51.362;7.074;2023-02-28T00:01:07;0.60;99.90
6373;DHT22;3219;51.362;7.074;2023-02-28T00:03:35;0.70;99.90
6373;DHT22;3219;51.362;7.074;2023-02-28T00:06:02;0.70;99.90
6373;DHT22;3219;51.362;7.074;2023-02-28T00:08:29;0.70;99.90
6373;DHT22;3219;51.362;7.074;2023-02-28T00:10:59;0.70;99.90
6373;DHT22;3219;51.362;7.074;2023-02-28T00:13:26;0.80;99.90
6373;DHT22;3219;51.362;7.074;2023-02-28T00:16:01;0.80;99.90
6373;DHT22;3219;51.362;7.074;2023-02-28T00:18:28;0.80;99.90
6373;DHT22;3219;51.362;7.074;2023-02-28T00:20:56;0.70;99.90
6373;DHT22;3219;51.362;7.074;2023-02-28T00:23:23;0.70;99.90
6373;DHT22;3219;51.362;7.074;2023-02-28T00:25:50;0.70;99.90
6373;DHT22;3219;51.362;7.074;2023-02-28T00:28:18;0.70;99.90
6373;DHT22;3219;51.362;7.074;2023-02-28T00:30:45;0.60;99.90
6373;DHT22;3219;51.362;7.074;2023-02-28T00:33:11;0.70;99.90
6373;DHT22;3219;51.362;7.074;2023-02-28T00:35:38;0.60;99.90
6373;DHT22;3219;51.362;7.074;2023-02-28T00:38:06;0.60;99.90
6373;DHT22;3219;51.362;7.074;2023-02-28T00:40:33;0.50;99.90
6373;DHT22;3219;51.362;7.074;2023-02-28T00:43:00;0.50;99.90
6373;DHT22;3219;51.362;7.074;2023-02-28T00:45:27;0.50;99.90
6373;DHT22;3219;51.362;7.074;2023-02-28T00:47:53;0.50;99.90
6373;DHT22;3219;51.362;7.074;2023-02-28T00:50:20;0.30;99.90
6373;DHT22;3219;51.362;7.074;2023-02-28T00:52:48;0.30;99.90
6373;DHT22;3219;51.362;7.074;2023-02-28T00:55:16;0.30;99.90
6373;DHT22;3219;51.362;7.074;2023-02-28T00:57:43;0.20;99.90
6373;DHT22;3219;51.362;7.074;2023-02-28T01:00:11;0.20;99.90
6373;DHT22;3219;51.362;7.074;2023-02-28T01:02:38;0.10;99.90
6373;DHT22;3219;51.362;7.074;2023-02-28T01:05:06;0.10;99.90
6373;DHT22;3219;51.362;7.074;2023-02-28T01:07:33;0.00;99.90
6373;DHT22;3219;51.362;7.074;2023-02-28T01:09:59;0.00;99.90
6373;DHT22;3219;51.362;7.074;2023-02-28T01:12:27;0.10;99.90
6373;DHT22;3219;51.362;7.074;2023-02-28T01:14:54;0.10;99.90
6373;DHT22;3219;51.362;7.074;2023-02-28T01:17:21;0.10;99.90
6373;DHT22;3219;51.362;7.074;2023-02-28T01:19:47;0.20;99.90
6373;DHT22;3219;51.362;7.074;2023-02-28T01:22:14;0.10;99.90
6373;DHT22;3219;51.362;7.074;2023-02-28T01:24:41;0.20;99.90
6373;DHT22;3219;51.362;7.074;2023-02-28T01:27:08;0.10;99.90
6373;DHT22;3219;51.362;7.074;2023-02-28T01:29:36;0.20;99.90
6373;DHT22;3219;51.362;7.074;2023-02-28T01:32:03;0.10;99.90
6373;DHT22;3219;51.362;7.074;2023-02-28T01:34:29;0.10;99.90
6373;DHT22;3219;51.362;7.074;2023-02-28T01:36:56;0.10;99.90
6373;DHT22;3219;51.362;7.074;2023-02-28T01:39:24;0.10;99.90
6373;DHT22;3219;51.362;7.074;2023-02-28T01:41:51;0.10;99.90
6373;DHT22;3219;51.362;7.074;2023-02-28T01:47:34;-0.10;99.90
6373;DHT22;3219;51.362;7.074;2023-02-28T01:50:06;-0.10;99.90
6373;DHT22;3219;51.362;7.074;2023-02-28T01:52:34;-0.10;99.90
6373;DHT22;3219;51.362;7.074;2023-02-28T01:55:02;-0.20;99.90
6373;DHT22;3219;51.362;7.074;2023-02-28T01:57:34;-0.20;99.90
6373;DHT22;3219;51.362;7.074;2023-02-28T02:00:06;-0.20;99.90
6373;DHT22;3219;51.362;7.074;2023-02-28T02:02:36;-0.20;99.90
6373;DHT22;3219;51.362;7.074;2023-02-28T02:05:06;-0.20;99.90
6373;DHT22;3219;51.362;7.074;2023-02-28T02:07:36;-0.30;99.90
6373;DHT22;3219;51.362;7.074;2023-02-28T02:10:09;-0.30;99.90
6373;DHT22;3219;51.362;7.074;2023-02-28T02:12:49;-0.30;99.90
6373;DHT22;3219;51.362;7.074;2023-02-28T02:15:22;-0.30;99.90
6373;DHT22;3219;51.362;7.074;2023-02-28T02:17:54;-0.30;99.90
6373;DHT22;3219;51.362;7.074;2023-02-28T02:20:50;-0.30;99.90
6373;DHT22;3219;51.362;7.074;2023-02-28T02:23:46;-0.30;99.90
6373;DHT22;3219;51.362;7.074;2023-02-28T02:26:46;-0.30;99.90
6373;DHT22;3219;51.362;7.074;2023-02-28T02:29:45;-0.40;99.90
6373;DHT22;3219;51.362;7.074;2023-02-28T02:32:42;-0.40;99.90
6373;DHT22;3219;51.362;7.074;2023-02-28T02:35:15;-0.50;99.90
6373;DHT22;3219;51.362;7.074;2023-02-28T02:37:50;-0.50;99.90
6373;DHT22;3219;51.362;7.074;2023-02-28T02:40:19;-0.50;99.90
6373;DHT22;3219;51.362;7.074;2023-02-28T02:42:50;-0.60;99.90
6373;DHT22;3219;51.362;7.074;2023-02-28T02:45:25;-0.50;99.90
6373;DHT22;3219;51.362;7.074;2023-02-28T02:47:54;-0.50;99.90
6373;DHT22;3219;51.362;7.074;2023-02-28T02:50:26;-0.60;99.90
6373;DHT22;3219;51.362;7.074;2023-02-28T02:52:57;-0.60;99.90
6373;DHT22;3219;51.362;7.074;2023-02-28T02:55:26;-0.50;99.90
6373;DHT22;3219;51.362;7.074;2023-02-28T02:57:57;-0.50;99.90
6373;DHT22;3219;51.362;7.074;2023-02-28T03:00:29;-0.50;99.90
6373;DHT22;3219;51.362;7.074;2023-02-28T03:02:57;-0.50;99.90
6373;DHT22;3219;51.362;7.074;2023-02-28T03:05:27;-0.50;99.90
6373;DHT22;3219;51.362;7.074;2023-02-28T03:07:55;-0.50;99.90
6373;DHT22;3219;51.362;7.074;2023-02-28T03:10:30;-0.60;99.90
6373;DHT22;3219;51.362;7.074;2023-02-28T03:13:09;-0.60;99.90
6373;DHT22;3219;51.362;7.074;2023-02-28T03:15:47;-0.60;99.90
6373;DHT22;3219;51.362;7.074;2023-02-28T03:18:24;-0.70;99.90
6373;DHT22;3219;51.362;7.074;2023-02-28T03:21:00;-0.70;99.90
6373;DHT22;3219;51.362;7.074;2023-02-28T03:23:39;-0.70;99.90
6373;DHT22;3219;51.362;7.074;2023-02-28T03:26:13;-0.70;99.90
6373;DHT22;3219;51.362;7.074;2023-02-28T03:28:47;-0.70;99.90
6373;DHT22;3219;51.362;7.074;2023-02-28T03:31:21;-0.80;99.90
6373;DHT22;3219;51.362;7.074;2023-02-28T03:33:54;-0.80;99.90
6373;DHT22;3219;51.362;7.074;2023-02-28T03:36:27;-0.80;99.90
6373;DHT22;3219;51.362;7.074;2023-02-28T03:38:57;-0.80;99.90
6373;DHT22;3219;51.362;7.074;2023-02-28T03:41:31;-0.80;99.90
6373;DHT22;3219;51.362;7.074;2023-02-28T03:44:03;-0.80;99.90
6373;DHT22;3219;51.362;7.074;2023-02-28T03:46:34;-0.90;99.90
6373;DHT22;3219;51.362;7.074;2023-02-28T03:49:08;-0.90;99.90
6373;DHT22;3219;51.362;7.074;2023-02-28T03:51:40;-0.90;99.90
6373;DHT22;3219;51.362;7.074;2023-02-28T03:54:11;-0.90;99.90
6373;DHT22;3219;51.362;7.074;2023-02-28T03:56:42;-0.90;99.90
6373;DHT22;3219;51.362;7.074;2023-02-28T03:59:13;-0.90;99.90
6373;DHT22;3219;51.362;7.074;2023-02-28T04:01:44;-0.90;99.90
6373;DHT22;3219;51.362;7.074;2023-02-28T04:04:12;-0.90;99.90
6373;DHT22;3219;51.362;7.074;2023-02-28T04:06:41;-0.90;99.90
6373;DHT22;3219;51.362;7.074;2023-02-28T04:09:10;-0.90;99.90
6373;DHT22;3219;51.362;7.074;2023-02-28T04:11:39;-1.00;99.90
6373;DHT22;3219;51.362;7.074;2023-02-28T04:14:08;-1.00;99.90
6373;DHT22;3219;51.362;7.074;2023-02-28T04:16:37;-1.00;99.90
6373;DHT22;3219;51.362;7.074;2023-02-28T04:19:06;-1.00;99.90
6373;DHT22;3219;51.362;7.074;2023-02-28T04:21:35;-1.00;99.90
6373;DHT22;3219;51.362;7.074;2023-02-28T04:24:05;-1.00;99.90
6373;DHT22;3219;51.362;7.074;2023-02-28T04:26:33;-1.00;99.90
6373;DHT22;3219;51.362;7.074;2023-02-28T04:29:01;-1.00;99.90
6373;DHT22;3219;51.362;7.074;2023-02-28T04:31:28;-0.90;99.90
6373;DHT22;3219;51.362;7.074;2023-02-28T04:33:55;-0.90;99.90
6373;DHT22;3219;51.362;7.074;2023-02-28T04:36:22;-0.90;99.90
6373;DHT22;3219;51.362;7.074;2023-02-28T04:38:49;-1.00;99.90
6373;DHT22;3219;51.362;7.074;2023-02-28T04:41:17;-1.00;99.90
6373;DHT22;3219;51.362;7.074;2023-02-28T04:43:44;-1.00;99.90
6373;DHT22;3219;51.362;7.074;2023-02-28T04:46:11;-1.00;99.90
6373;DHT22;3219;51.362;7.074;2023-02-28T04:48:39;-0.90;99.90
6373;DHT22;3219;51.362;7.074;2023-02-28T04:51:08;-0.90;99.90
6373;DHT22;3219;51.362;7.074;2023-02-28T04:53:36;-1.00;99.90
6373;DHT22;3219;51.362;7.074;2023-02-28T04:56:03;-1.00;99.90
6373;DHT22;3219;51.362;7.074;2023-02-28T04:58:33;-1.00;99.90
6373;DHT22;3219;51.362;7.074;2023-02-28T05:01:04;-1.00;99.90
6373;DHT22;3219;51.362;7.074;2023-02-28T05:03:38;-1.10;99.90
6373;DHT22;3219;51.362;7.074;2023-02-28T05:06:06;-1.10;99.90
6373;DHT22;3219;51.362;7.074;2023-02-28T05:08:32;-1.20;99.90
6373;DHT22;3219;51.362;7.074;2023-02-28T05:10:59;-1.30;99.90
6373;DHT22;3219;51.362;7.074;2023-02-28T05:13:27;-1.30;99.90
6373;DHT22;3219;51.362;7.074;2023-02-28T05:15:55;-1.40;99.90
6373;DHT22;3219;51.362;7.074;2023-02-28T05:18:22;-1.40;99.90
6373;DHT22;3219;51.362;7.074;2023-02-28T05:20:49;-1.50;99.90
6373;DHT22;3219;51.362;7.074;2023-02-28T05:23:17;-1.50;99.90
6373;DHT22;3219;51.362;7.074;2023-02-28T05:25:46;-1.40;99.90
6373;DHT22;3219;51.362;7.074;2023-02-28T05:28:13;-1.40;99.90
6373;DHT22;3219;51.362;7.074;2023-02-28T05:30:39;-1.40;99.90
6373;DHT22;3219;51.362;7.074;2023-02-28T05:33:11;-1.40;99.90
6373;DHT22;3219;51.362;7.074;2023-02-28T05:35:38;-1.40;99.90
6373;DHT22;3219;51.362;7.074;2023-02-28T05:38:05;-1.40;99.90
6373;DHT22;3219;51.362;7.074;2023-02-28T05:40:32;-1.30;99.90
6373;DHT22;3219;51.362;7.074;2023-02-28T05:42:58;-1.40;99.90
6373;DHT22;3219;51.362;7.074;2023-02-28T05:45:25;-1.40;99.90
6373;DHT22;3219;51.362;7.074;2023-02-28T05:47:53;-1.50;99.90
6373;DHT22;3219;51.362;7.074;2023-02-28T05:50:22;-1.50;99.90
6373;DHT22;3219;51.362;7.074;2023-02-28T05:52:49;-1.50;99.90
6373;DHT22;3219;51.362;7.074;2023-02-28T05:55:16;-1.50;99.90
6373;DHT22;3219;51.362;7.074;2023-02-28T05:57:43;-1.60;99.90
6373;DHT22;3219;51.362;7.074;2023-02-28T06:00:11;-1.60;99.90
6373;DHT22;3219;51.362;7.074;2023-02-28T06:02:40;-1.60;99.90
6373;DHT22;3219;51.362;7.074;2023-02-28T06:05:10;-1.60;99.90
6373;DHT22;3219;51.362;7.074;2023-02-28T06:07:40;-1.60;99.90
6373;DHT22;3219;51.362;7.074;2023-02-28T06:10:08;-1.60;99.90
6373;DHT22;3219;51.362;7.074;2023-02-28T06:12:35;-1.60;99.90
6373;DHT22;3219;51.362;7.074;2023-02-28T06:15:02;-1.70;99.90
6373;DHT22;3219;51.362;7.074;2023-02-28T06:17:29;-1.70;99.90
6373;DHT22;3219;51.362;7.074;2023-02-28T06:19:55;-1.70;99.90
6373;DHT22;3219;51.362;7.074;2023-02-28T06:22:22;-1.70;99.90
6373;DHT22;3219;51.362;7.074;2023-02-28T06:24:50;-1.60;99.90
6373;DHT22;3219;51.362;7.074;2023-02-28T06:27:18;-1.60;99.90
6373;DHT22;3219;51.362;7.074;2023-02-28T06:29:45;-1.60;99.90
6373;DHT22;3219;51.362;7.074;2023-02-28T06:32:12;-1.60;99.90
6373;DHT22;3219;51.362;7.074;2023-02-28T06:34:39;-1.50;99.90
6373;DHT22;3219;51.362;7.074;2023-02-28T06:37:06;-1.50;99.90
6373;DHT22;3219;51.362;7.074;2023-02-28T06:39:32;-1.50;99.90
6373;DHT22;3219;51.362;7.074;2023-02-28T06:42:00;-1.50;99.90
6373;DHT22;3219;51.362;7.074;2023-02-28T06:44:27;-1.50;99.90
6373;DHT22;3219;51.362;7.074;2023-02-28T06:47:01;-1.50;99.90
6373;DHT22;3219;51.362;7.074;2023-02-28T06:49:29;-1.50;99.90
6373;DHT22;3219;51.362;7.074;2023-02-28T06:51:55;-1.50;99.90
6373;DHT22;3219;51.362;7.074;2023-02-28T06:54:22;-1.40;99.90
6373;DHT22;3219;51.362;7.074;2023-02-28T06:56:50;-1.40;99.90
6373;DHT22;3219;51.362;7.074;2023-02-28T06:59:18;-1.50;99.90
6373;DHT22;3219;51.362;7.074;2023-02-28T07:01:45;-1.50;99.90
6373;DHT22;3219;51.362;7.074;2023-02-28T07:04:13;-1.40;99.90
6373;DHT22;3219;51.362;7.074;2023-02-28T07:06:40;-1.40;99.90
6373;DHT22;3219;51.362;7.074;2023-02-28T07:09:06;-1.50;99.90
6373;DHT22;3219;51.362;7.074;2023-02-28T07:11:33;-1.40;99.90
6373;DHT22;3219;51.362;7.074;2023-02-28T07:14:00;-1.40;99.90
6373;DHT22;3219;51.362;7.074;2023-02-28T07:16:28;-1.40;99.90
6373;DHT22;3219;51.362;7.074;2023-02-28T07:18:55;-1.30;99.90
6373;DHT22;3219;51.362;7.074;2023-02-28T07:21:22;-1.30;99.90
6373;DHT22;3219;51.362;7.074;2023-02-28T07:23:49;-1.20;99.90
6373;DHT22;3219;51.362;7.074;2023-02-28T07:26:17;-1.10;99.90
6373;DHT22;3219;51.362;7.074;2023-02-28T07:28:46;-1.00;99.90
6373;DHT22;3219;51.362;7.074;2023-02-28T07:31:14;-0.90;99.90
6373;DHT22;3219;51.362;7.074;2023-02-28T07:33:43;-0.90;99.90
6373;DHT22;3219;51.362;7.074;2023-02-28T07:36:13;-0.80;99.90
6373;DHT22;3219;51.362;7.074;2023-02-28T07:38:41;-0.80;99.90
6373;DHT22;3219;51.362;7.074;2023-02-28T07:41:08;-0.70;99.90
6373;DHT22;3219;51.362;7.074;2023-02-28T07:43:35;-0.70;99.90
6373;DHT22;3219;51.362;7.074;2023-02-28T07:46:03;-0.60;99.90
6373;DHT22;3219;51.362;7.074;2023-02-28T07:48:31;-0.50;99.90
6373;DHT22;3219;51.362;7.074;2023-02-28T07:51:00;-0.40;99.90
6373;DHT22;3219;51.362;7.074;2023-02-28T07:53:27;-0.30;99.90
6373;DHT22;3219;51.362;7.074;2023-02-28T07:55:55;-0.20;99.90
6373;DHT22;3219;51.362;7.074;2023-02-28T07:58:22;-0.20;99.90
6373;DHT22;3219;51.362;7.074;2023-02-28T08:00:49;-0.10;99.90
6373;DHT22;3219;51.362;7.074;2023-02-28T08:03:17;-0.10;99.90
6373;DHT22;3219;51.362;7.074;2023-02-28T08:05:43;0.00;99.90
6373;DHT22;3219;51.362;7.074;2023-02-28T08:08:12;0.00;99.90
6373;DHT22;3219;51.362;7.074;2023-02-28T08:10:39;0.10;99.90
6373;DHT22;3219;51.362;7.074;2023-02-28T08:13:06;0.10;99.90
6373;DHT22;3219;51.362;7.074;2023-02-28T08:15:33;0.20;99.90
6373;DHT22;3219;51.362;7.074;2023-02-28T08:17:59;0.20;99.90
6373;DHT22;3219;51.362;7.074;2023-02-28T08:20:26;0.30;99.90
6373;DHT22;3219;51.362;7.074;2023-02-28T08:22:53;0.60;99.90
6373;DHT22;3219;51.362;7.074;2023-02-28T08:25:21;1.30;99.90
6373;DHT22;3219;51.362;7.074;2023-02-28T08:27:50;1.70;99.90
6373;DHT22;3219;51.362;7.074;2023-02-28T08:30:17;2.40;99.90
6373;DHT22;3219;51.362;7.074;2023-02-28T08:32:44;2.80;99.90
6373;DHT22;3219;51.362;7.074;2023-02-28T08:35:10;3.50;99.90
6373;DHT22;3219;51.362;7.074;2023-02-28T08:37:37;4.20;99.90
6373;DHT22;3219;51.362;7.074;2023-02-28T08:40:05;4.80;99.90
6373;DHT22;3219;51.362;7.074;2023-02-28T08:42:33;5.50;99.90
6373;DHT22;3219;51.362;7.074;2023-02-28T08:45:00;5.50;99.90
6373;DHT22;3219;51.362;7.074;2023-02-28T08:47:27;4.90;99.90
6373;DHT22;3219;51.362;7.074;2023-02-28T08:49:54;4.50;99.90
6373;DHT22;3219;51.362;7.074;2023-02-28T08:52:21;4.00;99.90
6373;DHT22;3219;51.362;7.074;2023-02-28T08:54:47;3.60;99.90
6373;DHT22;3219;51.362;7.074;2023-02-28T08:57:14;3.40;99.90
6373;DHT22;3219;51.362;7.074;2023-02-28T08:59:42;3.30;99.90
6373;DHT22;3219;51.362;7.074;2023-02-28T09:02:11;3.10;99.90
6373;DHT22;3219;51.362;7.074;2023-02-28T09:04:38;2.80;99.90
6373;DHT22;3219;51.362;7.074;2023-02-28T09:07:05;2.80;99.90
6373;DHT22;3219;51.362;7.074;2023-02-28T09:09:32;3.50;99.90
6373;DHT22;3219;51.362;7.074;2023-02-28T09:11:58;4.10;99.90
6373;DHT22;3219;51.362;7.074;2023-02-28T09:14:25;4.30;99.90
6373;DHT22;3219;51.362;7.074;2023-02-28T09:16:53;4.60;99.90
6373;DHT22;3219;51.362;7.074;2023-02-28T09:19:21;4.30;99.90
6373;DHT22;3219;51.362;7.074;2023-02-28T09:21:47;3.90;99.90
6373;DHT22;3219;51.362;7.074;2023-02-28T09:24:14;3.30;99.90
6373;DHT22;3219;51.362;7.074;2023-02-28T09:26:41;2.90;99.90
6373;DHT22;3219;51.362;7.074;2023-02-28T09:29:07;2.50;99.90
6373;DHT22;3219;51.362;7.074;2023-02-28T09:31:34;2.20;99.90
6373;DHT22;3219;51.362;7.074;2023-02-28T09:34:04;2.30;99.90
6373;DHT22;3219;51.362;7.074;2023-02-28T09:36:31;2.60;99.90
6373;DHT22;3219;51.362;7.074;2023-02-28T09:38:58;2.80;99.90
6373;DHT22;3219;51.362;7.074;2023-02-28T09:41:26;2.90;99.90
6373;DHT22;3219;51.362;7.074;2023-02-28T09:43:57;2.70;99.90
6373;DHT22;3219;51.362;7.074;2023-02-28T09:46:29;2.40;99.90
6373;DHT22;3219;51.362;7.074;2023-02-28T09:48:58;2.20;99.90
6373;DHT22;3219;51.362;7.074;2023-02-28T09:51:40;2.00;99.90
6373;DHT22;3219;51.362;7.074;2023-02-28T09:54:14;1.90;99.90
6373;DHT22;3219;51.362;7.074;2023-02-28T09:56:45;1.80;99.90
6373;DHT22;3219;51.362;7.074;2023-02-28T09:59:25;1.70;99.90
6373;DHT22;3219;51.362;7.074;2023-02-28T10:01:59;1.80;99.90
6373;DHT22;3219;51.362;7.074;2023-02-28T10:04:39;1.90;99.90
6373;DHT22;3219;51.362;7.074;2023-02-28T10:07:18;1.90;99.90
6373;DHT22;3219;51.362;7.074;2023-02-28T10:09:49;2.00;99.90
6373;DHT22;3219;51.362;7.074;2023-02-28T10:12:19;1.90;99.90
6373;DHT22;3219;51.362;7.074;2023-02-28T10:14:48;1.80;99.90
6373;DHT22;3219;51.362;7.074;2023-02-28T10:17:19;1.90;99.90
6373;DHT22;3219;51.362;7.074;2023-02-28T10:19:53;2.00;99.90
6373;DHT22;3219;51.362;7.074;2023-02-28T10:22:26;2.00;99.90
6373;DHT22;3219;51.362;7.074;2023-02-28T10:24:55;2.00;99.90
6373;DHT22;3219;51.362;7.074;2023-02-28T10:27:29;2.00;99.90
6373;DHT22;3219;51.362;7.074;2023-02-28T10:29:57;2.00;99.90
6373;DHT22;3219;51.362;7.074;2023-02-28T10:32:27;2.00;99.90
6373;DHT22;3219;51.362;7.074;2023-02-28T10:34:57;2.00;99.90
6373;DHT22;3219;51.362;7.074;2023-02-28T10:37:27;2.00;99.90
6373;DHT22;3219;51.362;7.074;2023-02-28T10:39:53;2.10;99.90
6373;DHT22;3219;51.362;7.074;2023-02-28T10:42:23;2.10;99.90
6373;DHT22;3219;51.362;7.074;2023-02-28T10:45:06;2.10;99.90
6373;DHT22;3219;51.362;7.074;2023-02-28T10:47:41;2.00;99.90
6373;DHT22;3219;51.362;7.074;2023-02-28T10:50:34;2.10;99.90
6373;DHT22;3219;51.362;7.074;2023-02-28T10:53:14;2.20;99.90
6373;DHT22;3219;51.362;7.074;2023-02-28T10:55:42;2.30;99.90
6373;DHT22;3219;51.362;7.074;2023-02-28T10:58:21;2.30;99.90
6373;DHT22;3219;51.362;7.074;2023-02-28T11:00:49;2.30;99.90
6373;DHT22;3219;51.362;7.074;2023-02-28T11:03:25;2.40;99.90
6373;DHT22;3219;51.362;7.074;2023-02-28T11:05:54;2.40;99.90
6373;DHT22;3219;51.362;7.074;2023-02-28T11:08:23;2.40;99.90
6373;DHT22;3219;51.362;7.074;2023-02-28T11:10:55;2.40;99.90
6373;DHT22;3219;51.362;7.074;2023-02-28T11:13:26;2.40;99.90
6373;DHT22;3219;51.362;7.074;2023-02-28T11:15:55;2.40;99.90
6373;DHT22;3219;51.362;7.074;2023-02-28T11:18:25;2.40;99.90
6373;DHT22;3219;51.362;7.074;2023-02-28T11:20:56;2.40;99.90
6373;DHT22;3219;51.362;7.074;2023-02-28T11:23:26;2.40;99.90
6373;DHT22;3219;51.362;7.074;2023-02-28T11:25:56;2.50;99.90
6373;DHT22;3219;51.362;7.074;2023-02-28T11:28:27;2.60;99.90
6373;DHT22;3219;51.362;7.074;2023-02-28T11:31:05;2.70;99.90
6373;DHT22;3219;51.362;7.074;2023-02-28T11:33:40;2.70;99.90
6373;DHT22;3219;51.362;7.074;2023-02-28T11:36:12;2.90;99.90
6373;DHT22;3219;51.362;7.074;2023-02-28T11:38:40;3.00;99.90
6373;DHT22;3219;51.362;7.074;2023-02-28T11:41:31;3.00;99.90
6373;DHT22;3219;51.362;7.074;2023-02-28T11:44:32;3.20;99.90
6373;DHT22;3219;51.362;7.074;2023-02-28T11:47:04;3.30;99.90
6373;DHT22;3219;51.362;7.074;2023-02-28T11:49:40;3.40;99.90
6373;DHT22;3219;51.362;7.074;2023-02-28T11:52:20;3.60;99.90
6373;DHT22;3219;51.362;7.074;2023-02-28T11:55:07;3.60;99.90
6373;DHT22;3219;51.362;7.074;2023-02-28T12:00:38;3.60;99.90
6373;DHT22;3219;51.362;7.074;2023-02-28T12:03:22;3.60;99.90
6373;DHT22;3219;51.362;7.074;2023-02-28T12:05:58;3.50;99.90
6373;DHT22;3219;51.362;7.074;2023-02-28T12:08:43;3.50;99.90
6373;DHT22;3219;51.362;7.074;2023-02-28T12:11:19;3.70;99.90
6373;DHT22;3219;51.362;7.074;2023-02-28T12:13:58;3.80;99.90
6373;DHT22;3219;51.362;7.074;2023-02-28T12:16:41;3.70;99.90
6373;DHT22;3219;51.362;7.074;2023-02-28T12:19:19;3.50;99.90
6373;DHT22;3219;51.362;7.074;2023-02-28T12:21:56;3.30;99.90
6373;DHT22;3219;51.362;7.074;2023-02-28T12:24:57;3.20;99.90
6373;DHT22;3219;51.362;7.074;2023-02-28T12:27:30;3.10;99.90
6373;DHT22;3219;51.362;7.074;2023-02-28T12:30:02;3.10;99.90
6373;DHT22;3219;51.362;7.074;2023-02-28T12:32:32;3.20;99.90
6373;DHT22;3219;51.362;7.074;2023-02-28T12:35:03;3.20;99.90
6373;DHT22;3219;51.362;7.074;2023-02-28T12:37:33;3.30;99.90
6373;DHT22;3219;51.362;7.074;2023-02-28T12:40:09;3.20;99.90
6373;DHT22;3219;51.362;7.074;2023-02-28T12:42:42;3.20;99.90
6373;DHT22;3219;51.362;7.074;2023-02-28T12:45:16;3.20;99.90
6373;DHT22;3219;51.362;7.074;2023-02-28T12:47:45;3.30;99.90
6373;DHT22;3219;51.362;7.074;2023-02-28T12:50:13;3.30;99.90
6373;DHT22;3219;51.362;7.074;2023-02-28T12:52:44;3.40;99.90
6373;DHT22;3219;51.362;7.074;2023-02-28T12:55:19;3.30;99.90
6373;DHT22;3219;51.362;7.074;2023-02-28T12:57:57;3.30;99.90
6373;DHT22;3219;51.362;7.074;2023-02-28T13:00:30;3.30;99.90
6373;DHT22;3219;51.362;7.074;2023-02-28T13:03:23;3.40;99.90
6373;DHT22;3219;51.362;7.074;2023-02-28T13:06:09;3.40;99.90
6373;DHT22;3219;51.362;7.074;2023-02-28T13:08:56;3.40;99.90
6373;DHT22;3219;51.362;7.074;2023-02-28T13:11:28;3.40;99.90
6373;DHT22;3219;51.362;7.074;2023-02-28T13:14:03;3.40;99.90
6373;DHT22;3219;51.362;7.074;2023-02-28T13:16:49;3.50;99.90
6373;DHT22;3219;51.362;7.074;2023-02-28T13:19:18;3.50;99.90
6373;DHT22;3219;51.362;7.074;2023-02-28T13:21:47;3.60;99.90
6373;DHT22;3219;51.362;7.074;2023-02-28T13:24:40;3.60;99.90
6373;DHT22;3219;51.362;7.074;2023-02-28T13:27:32;3.60;99.90
6373;DHT22;3219;51.362;7.074;2023-02-28T13:32:43;3.70;99.90
6373;DHT22;3219;51.362;7.074;2023-02-28T13:38:33;3.70;99.90
6373;DHT22;3219;51.362;7.074;2023-02-28T13:44:06;3.80;99.90
6373;DHT22;3219;51.362;7.074;2023-02-28T13:46:36;3.80;99.90
6373;DHT22;3219;51.362;7.074;2023-02-28T13:49:19;3.80;99.90
6373;DHT22;3219;51.362;7.074;2023-02-28T13:51:47;3.90;99.90
6373;DHT22;3219;51.362;7.074;2023-02-28T13:54:24;3.90;99.90
6373;DHT22;3219;51.362;7.074;2023-02-28T13:57:04;3.90;99.90
6373;DHT22;3219;51.362;7.074;2023-02-28T13:59:38;3.80;99.90
6373;DHT22;3219;51.362;7.074;2023-02-28T14:02:40;3.80;99.90
6373;DHT22;3219;51.362;7.074;2023-02-28T14:05:15;3.80;99.90
6373;DHT22;3219;51.362;7.074;2023-02-28T14:07:45;3.80;99.90
6373;DHT22;3219;51.362;7.074;2023-02-28T14:10:23;3.80;99.90
6373;DHT22;3219;51.362;7.074;2023-02-28T14:13:03;3.80;99.90
6373;DHT22;3219;51.362;7.074;2023-02-28T14:15:48;3.80;99.90
6373;DHT22;3219;51.362;7.074;2023-02-28T14:18:21;3.80;99.90
6373;DHT22;3219;51.362;7.074;2023-02-28T14:20:51;3.70;99.90
6373;DHT22;3219;51.362;7.074;2023-02-28T14:26:14;3.80;99.90
6373;DHT22;3219;51.362;7.074;2023-02-28T14:28:56;3.80;99.90
6373;DHT22;3219;51.362;7.074;2023-02-28T14:31:32;3.80;99.90
6373;DHT22;3219;51.362;7.074;2023-02-28T14:34:21;3.80;99.90
6373;DHT22;3219;51.362;7.074;2023-02-28T14:36:52;3.80;99.90
6373;DHT22;3219;51.362;7.074;2023-02-28T14:39:22;3.80;99.90
6373;DHT22;3219;51.362;7.074;2023-02-28T14:41:49;3.80;99.90
6373;DHT22;3219;51.362;7.074;2023-02-28T14:44:18;3.80;99.90
6373;DHT22;3219;51.362;7.074;2023-02-28T14:46:47;3.80;99.90
6373;DHT22;3219;51.362;7.074;2023-02-28T14:49:24;3.80;99.90
6373;DHT22;3219;51.362;7.074;2023-02-28T14:52:02;3.90;99.90
6373;DHT22;3219;51.362;7.074;2023-02-28T14:54:29;3.90;99.90
6373;DHT22;3219;51.362;7.074;2023-02-28T14:56:56;3.90;99.90
6373;DHT22;3219;51.362;7.074;2023-02-28T14:59:26;3.90;99.90
6373;DHT22;3219;51.362;7.074;2023-02-28T15:02:14;3.90;99.90
6373;DHT22;3219;51.362;7.074;2023-02-28T15:04:52;3.80;99.90
6373;DHT22;3219;51.362;7.074;2023-02-28T15:07:19;3.80;99.90
6373;DHT22;3219;51.362;7.074;2023-02-28T15:10:11;3.80;99.90
6373;DHT22;3219;51.362;7.074;2023-02-28T15:12:40;3.80;99.90
6373;DHT22;3219;51.362;7.074;2023-02-28T15:15:15;3.80;99.90
6373;DHT22;3219;51.362;7.074;2023-02-28T15:17:45;3.70;99.90
6373;DHT22;3219;51.362;7.074;2023-02-28T15:20:15;3.70;99.90
6373;DHT22;3219;51.362;7.074;2023-02-28T15:22:42;3.70;99.90
6373;DHT22;3219;51.362;7.074;2023-02-28T15:25:10;3.70;99.90
6373;DHT22;3219;51.362;7.074;2023-02-28T15:27:44;3.70;99.90
6373;DHT22;3219;51.362;7.074;2023-02-28T15:30:15;3.70;99.90
6373;DHT22;3219;51.362;7.074;2023-02-28T15:32:43;3.60;99.90
6373;DHT22;3219;51.362;7.074;2023-02-28T15:35:27;3.60;99.90
6373;DHT22;3219;51.362;7.074;2023-02-28T15:37:57;3.60;99.90
6373;DHT22;3219;51.362;7.074;2023-02-28T15:40:28;3.60;99.90
6373;DHT22;3219;51.362;7.074;2023-02-28T15:42:59;3.70;99.90
6373;DHT22;3219;51.362;7.074;2023-02-28T15:45:28;3.60;99.90
6373;DHT22;3219;51.362;7.074;2023-02-28T15:47:55;3.60;99.90
6373;DHT22;3219;51.362;7.074;2023-02-28T15:50:23;3.50;99.90
6373;DHT22;3219;51.362;7.074;2023-02-28T15:52:50;3.50;99.90
6373;DHT22;3219;51.362;7.074;2023-02-28T15:55:19;3.40;99.90
6373;DHT22;3219;51.362;7.074;2023-02-28T15:57:49;3.40;99.90
6373;DHT22;3219;51.362;7.074;2023-02-28T16:00:19;3.40;99.90
6373;DHT22;3219;51.362;7.074;2023-02-28T16:02:47;3.30;99.90
6373;DHT22;3219;51.362;7.074;2023-02-28T16:05:21;3.30;99.90
6373;DHT22;3219;51.362;7.074;2023-02-28T16:07:55;3.30;99.90
6373;DHT22;3219;51.362;7.074;2023-02-28T16:10:23;3.30;99.90
6373;DHT22;3219;51.362;7.074;2023-02-28T16:12:53;3.30;99.90
6373;DHT22;3219;51.362;7.074;2023-02-28T16:15:22;3.30;99.90
6373;DHT22;3219;51.362;7.074;2023-02-28T16:17:50;3.30;99.90
6373;DHT22;3219;51.362;7.074;2023-02-28T16:20:19;3.30;99.90
6373;DHT22;3219;51.362;7.074;2023-02-28T16:22:46;3.30;99.90
6373;DHT22;3219;51.362;7.074;2023-02-28T16:25:16;3.20;99.90
6373;DHT22;3219;51.362;7.074;2023-02-28T16:27:45;3.20;99.90
6373;DHT22;3219;51.362;7.074;2023-02-28T16:30:19;3.20;99.90
6373;DHT22;3219;51.362;7.074;2023-02-28T16:32:46;3.20;99.90
6373;DHT22;3219;51.362;7.074;2023-02-28T16:35:14;3.20;99.90
6373;DHT22;3219;51.362;7.074;2023-02-28T16:37:41;3.10;99.90
6373;DHT22;3219;51.362;7.074;2023-02-28T16:40:15;3.10;99.90
6373;DHT22;3219;51.362;7.074;2023-02-28T16:42:42;3.10;99.90
6373;DHT22;3219;51.362;7.074;2023-02-28T16:45:21;3.00;99.90
6373;DHT22;3219;51.362;7.074;2023-02-28T16:47:48;3.00;99.90
6373;DHT22;3219;51.362;7.074;2023-02-28T16:50:18;3.00;99.90
6373;DHT22;3219;51.362;7.074;2023-02-28T16:52:45;3.00;99.90
6373;DHT22;3219;51.362;7.074;2023-02-28T16:55:14;3.00;99.90